sensor_id;sensor_type;location;lat;lon;timestamp;pressure;altitude;pressure_sealevel;temperature;humidity
51449;BME280;37520;46.570;14.268;2022-08-25T00:02:05;95898.16;;;18.73;85.18
51449;BME280;37520;46.570;14.268;2022-08-25T00:12:07;95879.47;;;18.68;85.45
51449;BME280;37520;46.570;14.268;2022-08-25T00:22:08;95879.25;;;18.64;86.54
51449;BME280;37520;46.570;14.268;2022-08-25T00:32:10;95887.13;;;18.56;87.08
51449;BME280;37520;46.570;14.268;2022-08-25T00:42:11;95889.22;;;18.40;87.01
51449;BME280;37520;46.570;14.268;2022-08-25T01:02:49;95871.69;;;18.04;88.26
51449;BME280;37520;46.570;14.268;2022-08-25T01:12:55;95871.53;;;17.90;87.80
51449;BME280;37520;46.570;14.268;2022-08-25T01:23:00;95874.38;;;17.75;88.62
51449;BME280;37520;46.570;14.268;2022-08-25T01:33:06;95866.72;;;17.63;88.76
51449;BME280;37520;46.570;14.268;2022-08-25T02:03:16;95858.88;;;17.42;89.44
51449;BME280;37520;46.570;14.268;2022-08-25T02:13:18;95852.00;;;17.36;90.11
51449;BME280;37520;46.570;14.268;2022-08-25T02:23:21;95859.22;;;17.35;92.27
51449;BME280;37520;46.570;14.268;2022-08-25T02:33:22;95856.56;;;17.35;92.09
51449;BME280;37520;46.570;14.268;2022-08-25T02:43:24;95858.41;;;17.35;92.38
51449;BME280;37520;46.570;14.268;2022-08-25T02:53:27;95862.13;;;17.39;93.41
51449;BME280;37520;46.570;14.268;2022-08-25T03:03:29;95864.81;;;17.39;93.87
51449;BME280;37520;46.570;14.268;2022-08-25T03:13:31;95855.78;;;17.30;92.89
51449;BME280;37520;46.570;14.268;2022-08-25T03:23:32;95848.69;;;17.15;92.48
51449;BME280;37520;46.570;14.268;2022-08-25T03:33:34;95849.06;;;17.03;91.76
51449;BME280;37520;46.570;14.268;2022-08-25T03:43:35;95851.00;;;16.92;92.56
51449;BME280;37520;46.570;14.268;2022-08-25T03:53:36;95850.00;;;16.77;91.02
51449;BME280;37520;46.570;14.268;2022-08-25T04:03:38;95850.34;;;16.60;92.90
51449;BME280;37520;46.570;14.268;2022-08-25T04:13:40;95855.75;;;16.50;91.28
51449;BME280;37520;46.570;14.268;2022-08-25T04:23:47;95862.50;;;16.37;91.11
51449;BME280;37520;46.570;14.268;2022-08-25T04:33:49;95847.84;;;16.30;92.19
51449;BME280;37520;46.570;14.268;2022-08-25T04:43:51;95852.41;;;16.24;92.73
51449;BME280;37520;46.570;14.268;2022-08-25T04:53:54;95843.13;;;16.16;93.09
51449;BME280;37520;46.570;14.268;2022-08-25T05:03:58;95838.84;;;16.15;92.29
51449;BME280;37520;46.570;14.268;2022-08-25T05:14:01;95844.69;;;16.22;94.82
51449;BME280;37520;46.570;14.268;2022-08-25T05:24:02;95845.97;;;16.35;94.88
51449;BME280;37520;46.570;14.268;2022-08-25T05:34:06;95846.66;;;16.56;94.56
51449;BME280;37520;46.570;14.268;2022-08-25T05:44:07;95859.69;;;16.68;95.56
51449;BME280;37520;46.570;14.268;2022-08-25T05:54:09;95854.72;;;16.91;94.46
51449;BME280;37520;46.570;14.268;2022-08-25T06:04:14;95857.25;;;17.17;96.19
51449;BME280;37520;46.570;14.268;2022-08-25T06:14:16;95856.63;;;17.54;96.22
51449;BME280;37520;46.570;14.268;2022-08-25T06:24:17;95855.72;;;17.94;94.27
51449;BME280;37520;46.570;14.268;2022-08-25T06:34:19;95852.31;;;18.36;90.51
51449;BME280;37520;46.570;14.268;2022-08-25T06:44:21;95849.25;;;18.67;88.56
51449;BME280;37520;46.570;14.268;2022-08-25T06:54:23;95848.88;;;18.93;86.85
51449;BME280;37520;46.570;14.268;2022-08-25T07:04:24;95848.16;;;19.40;81.71
51449;BME280;37520;46.570;14.268;2022-08-25T07:14:25;95855.31;;;20.47;74.00
51449;BME280;37520;46.570;14.268;2022-08-25T07:24:27;95827.06;;;21.54;71.28
51449;BME280;37520;46.570;14.268;2022-08-25T07:34:28;95820.88;;;22.26;64.00
51449;BME280;37520;46.570;14.268;2022-08-25T07:44:49;95826.69;;;23.38;60.80
51449;BME280;37520;46.570;14.268;2022-08-25T07:54:50;95819.72;;;23.28;58.80
51449;BME280;37520;46.570;14.268;2022-08-25T08:04:54;95815.94;;;23.21;62.42
51449;BME280;37520;46.570;14.268;2022-08-25T08:14:57;95812.94;;;23.70;59.30
51449;BME280;37520;46.570;14.268;2022-08-25T08:25:00;95805.31;;;24.40;54.87
51449;BME280;37520;46.570;14.268;2022-08-25T08:35:01;95801.97;;;25.40;54.04
51449;BME280;37520;46.570;14.268;2022-08-25T08:45:17;95794.75;;;26.15;53.24
51449;BME280;37520;46.570;14.268;2022-08-25T08:55:27;95798.91;;;25.75;51.46
51449;BME280;37520;46.570;14.268;2022-08-25T09:05:34;95788.38;;;25.74;51.08
51449;BME280;37520;46.570;14.268;2022-08-25T09:15:53;95784.31;;;25.68;50.86
51449;BME280;37520;46.570;14.268;2022-08-25T09:26:37;95770.59;;;25.73;52.02
51449;BME280;37520;46.570;14.268;2022-08-25T09:36:40;95769.94;;;26.13;51.90
51449;BME280;37520;46.570;14.268;2022-08-25T09:57:01;95753.03;;;26.57;49.54
51449;BME280;37520;46.570;14.268;2022-08-25T10:07:24;95745.47;;;27.35;47.05
51449;BME280;37520;46.570;14.268;2022-08-25T10:17:30;95735.00;;;27.66;46.47
51449;BME280;37520;46.570;14.268;2022-08-25T10:48:50;95693.88;;;28.74;43.07
51449;BME280;37520;46.570;14.268;2022-08-25T11:08:43;95664.72;;;29.18;41.69
51449;BME280;37520;46.570;14.268;2022-08-25T11:29:13;95658.72;;;28.66;44.04
51449;BME280;37520;46.570;14.268;2022-08-25T11:49:51;95636.00;;;28.35;42.81
51449;BME280;37520;46.570;14.268;2022-08-25T12:10:09;95619.66;;;29.20;39.74
51449;BME280;37520;46.570;14.268;2022-08-25T12:20:11;95626.41;;;28.80;40.25
51449;BME280;37520;46.570;14.268;2022-08-25T12:50:43;95593.03;;;29.30;40.57
51449;BME280;37520;46.570;14.268;2022-08-25T13:01:29;95598.78;;;29.51;37.74
51449;BME280;37520;46.570;14.268;2022-08-25T13:11:48;95577.63;;;29.68;38.86
51449;BME280;37520;46.570;14.268;2022-08-25T13:21:52;95580.78;;;29.43;38.26
51449;BME280;37520;46.570;14.268;2022-08-25T13:31:57;95575.47;;;29.27;41.00
51449;BME280;37520;46.570;14.268;2022-08-25T13:42:00;95547.78;;;29.48;38.08
51449;BME280;37520;46.570;14.268;2022-08-25T13:52:02;95535.72;;;29.22;38.65
51449;BME280;37520;46.570;14.268;2022-08-25T14:02:04;95530.19;;;28.92;38.79
51449;BME280;37520;46.570;14.268;2022-08-25T14:12:06;95520.38;;;29.10;40.96
51449;BME280;37520;46.570;14.268;2022-08-25T14:22:08;95518.41;;;29.07;40.18
51449;BME280;37520;46.570;14.268;2022-08-25T14:32:09;95522.53;;;28.08;41.08
51449;BME280;37520;46.570;14.268;2022-08-25T14:42:12;95521.66;;;27.85;41.45
51449;BME280;37520;46.570;14.268;2022-08-25T14:52:26;95520.22;;;27.91;42.32
51449;BME280;37520;46.570;14.268;2022-08-25T15:02:29;95523.97;;;27.31;43.91
51449;BME280;37520;46.570;14.268;2022-08-25T15:12:32;95516.94;;;26.62;48.76
51449;BME280;37520;46.570;14.268;2022-08-25T15:22:34;95516.97;;;26.18;50.25
51449;BME280;37520;46.570;14.268;2022-08-25T15:32:35;95507.09;;;25.97;51.90
51449;BME280;37520;46.570;14.268;2022-08-25T15:42:37;95504.56;;;26.17;49.65
51449;BME280;37520;46.570;14.268;2022-08-25T15:52:38;95511.13;;;26.32;47.73
51449;BME280;37520;46.570;14.268;2022-08-25T16:02:39;95504.88;;;26.44;46.78
51449;BME280;37520;46.570;14.268;2022-08-25T16:12:41;95506.91;;;26.18;47.28
51449;BME280;37520;46.570;14.268;2022-08-25T16:22:42;95526.28;;;25.64;49.00
51449;BME280;37520;46.570;14.268;2022-08-25T16:32:45;95524.22;;;25.20;51.58
51449;BME280;37520;46.570;14.268;2022-08-25T16:42:47;95518.81;;;24.83;53.43
51449;BME280;37520;46.570;14.268;2022-08-25T16:52:49;95508.06;;;24.49;56.63
51449;BME280;37520;46.570;14.268;2022-08-25T17:03:08;95519.31;;;24.05;58.62
51449;BME280;37520;46.570;14.268;2022-08-25T17:13:11;95519.13;;;23.68;59.36
51449;BME280;37520;46.570;14.268;2022-08-25T17:23:14;95527.78;;;23.31;61.18
51449;BME280;37520;46.570;14.268;2022-08-25T17:33:15;95534.47;;;22.95;62.96
51449;BME280;37520;46.570;14.268;2022-08-25T17:43:17;95543.50;;;22.61;64.09
51449;BME280;37520;46.570;14.268;2022-08-25T17:53:18;95547.69;;;22.23;65.37
51449;BME280;37520;46.570;14.268;2022-08-25T18:03:20;95561.31;;;21.92;65.81
51449;BME280;37520;46.570;14.268;2022-08-25T18:13:22;95575.84;;;21.55;68.21
51449;BME280;37520;46.570;14.268;2022-08-25T18:23:25;95585.44;;;21.30;68.29
51449;BME280;37520;46.570;14.268;2022-08-25T18:33:26;95603.06;;;21.05;69.22
51449;BME280;37520;46.570;14.268;2022-08-25T18:43:31;95618.47;;;20.82;70.36
51449;BME280;37520;46.570;14.268;2022-08-25T18:53:32;95629.72;;;20.61;70.94
51449;BME280;37520;46.570;14.268;2022-08-25T19:03:36;95634.28;;;20.38;73.02
51449;BME280;37520;46.570;14.268;2022-08-25T19:13:38;95632.78;;;20.23;74.95
51449;BME280;37520;46.570;14.268;2022-08-25T19:23:39;95646.56;;;20.07;74.00
51449;BME280;37520;46.570;14.268;2022-08-25T19:33:40;95637.66;;;19.84;74.98
51449;BME280;37520;46.570;14.268;2022-08-25T19:43:44;95643.31;;;19.69;76.47
51449;BME280;37520;46.570;14.268;2022-08-25T19:53:47;95645.25;;;19.54;76.91
51449;BME280;37520;46.570;14.268;2022-08-25T20:03:49;95647.25;;;19.35;76.77
51449;BME280;37520;46.570;14.268;2022-08-25T20:13:51;95657.16;;;19.20;77.68
51449;BME280;37520;46.570;14.268;2022-08-25T20:23:53;95666.28;;;19.05;77.53
51449;BME280;37520;46.570;14.268;2022-08-25T20:34:14;95670.28;;;18.89;79.16
51449;BME280;37520;46.570;14.268;2022-08-25T20:44:16;95668.16;;;18.72;80.26
51449;BME280;37520;46.570;14.268;2022-08-25T20:54:17;95675.09;;;18.59;81.36
51449;BME280;37520;46.570;14.268;2022-08-25T21:04:21;95676.91;;;18.44;82.12
51449;BME280;37520;46.570;14.268;2022-08-25T21:14:25;95675.75;;;18.31;82.41
51449;BME280;37520;46.570;14.268;2022-08-25T21:24:27;95678.06;;;18.19;84.04
51449;BME280;37520;46.570;14.268;2022-08-25T21:34:29;95682.81;;;18.08;84.39
51449;BME280;37520;46.570;14.268;2022-08-25T21:44:30;95679.69;;;18.01;85.00
51449;BME280;37520;46.570;14.268;2022-08-25T21:54:32;95682.66;;;17.99;86.49
51449;BME280;37520;46.570;14.268;2022-08-25T22:04:33;95681.84;;;17.99;87.32
51449;BME280;37520;46.570;14.268;2022-08-25T22:14:36;95670.28;;;18.03;88.38
51449;BME280;37520;46.570;14.268;2022-08-25T22:24:37;95671.88;;;18.04;88.15
51449;BME280;37520;46.570;14.268;2022-08-25T22:34:39;95668.69;;;18.02;88.02
51449;BME280;37520;46.570;14.268;2022-08-25T22:44:40;95666.09;;;17.97;89.38
51449;BME280;37520;46.570;14.268;2022-08-25T22:54:44;95661.44;;;17.84;88.40
51449;BME280;37520;46.570;14.268;2022-08-25T23:04:45;95663.97;;;17.75;89.12
51449;BME280;37520;46.570;14.268;2022-08-25T23:14:47;95662.50;;;17.64;89.62
51449;BME280;37520;46.570;14.268;2022-08-25T23:24:50;95666.38;;;17.52;89.24
51449;BME280;37520;46.570;14.268;2022-08-25T23:34:52;95654.28;;;17.36;89.49
51449;BME280;37520;46.570;14.268;2022-08-25T23:44:53;95648.03;;;17.21;89.74
51449;BME280;37520;46.570;14.268;2022-08-25T23:54:55;95642.25;;;17.14;90.57
